sensor_id;sensor_type;location;lat;lon;timestamp;temperature;humidity
2579;DHT22;1299;48.282;14.398;2022-09-03T00:02:37;13.90;99.90
2579;DHT22;1299;48.282;14.398;2022-09-03T00:05:09;13.90;99.90
2579;DHT22;1299;48.282;14.398;2022-09-03T00:07:44;13.80;99.90
2579;DHT22;1299;48.282;14.398;2022-09-03T00:10:20;13.80;99.90
2579;DHT22;1299;48.282;14.398;2022-09-03T00:12:51;13.80;99.90
2579;DHT22;1299;48.282;14.398;2022-09-03T00:15:21;13.80;99.90
2579;DHT22;1299;48.282;14.398;2022-09-03T00:17:53;13.80;99.90
2579;DHT22;1299;48.282;14.398;2022-09-03T00:20:26;13.80;99.90
2579;DHT22;1299;48.282;14.398;2022-09-03T00:22:57;13.80;99.90
2579;DHT22;1299;48.282;14.398;2022-09-03T00:25:33;13.70;99.90
2579;DHT22;1299;48.282;14.398;2022-09-03T00:28:10;13.70;99.90
2579;DHT22;1299;48.282;14.398;2022-09-03T00:30:39;13.60;99.90
2579;DHT22;1299;48.282;14.398;2022-09-03T00:33:10;13.60;99.90
2579;DHT22;1299;48.282;14.398;2022-09-03T00:35:43;13.70;99.90
2579;DHT22;1299;48.282;14.398;2022-09-03T00:38:13;13.60;99.90
2579;DHT22;1299;48.282;14.398;2022-09-03T00:40:59;13.60;99.90
2579;DHT22;1299;48.282;14.398;2022-09-03T00:43:44;13.50;99.90
2579;DHT22;1299;48.282;14.398;2022-09-03T00:46:20;13.50;99.90
2579;DHT22;1299;48.282;14.398;2022-09-03T00:49:06;13.40;99.90
2579;DHT22;1299;48.282;14.398;2022-09-03T00:51:46;13.40;99.90
2579;DHT22;1299;48.282;14.398;2022-09-03T00:54:22;13.40;99.90
2579;DHT22;1299;48.282;14.398;2022-09-03T00:57:05;13.40;99.90
2579;DHT22;1299;48.282;14.398;2022-09-03T00:59:43;13.20;99.90
2579;DHT22;1299;48.282;14.398;2022-09-03T01:02:18;13.30;99.90
2579;DHT22;1299;48.282;14.398;2022-09-03T01:04:59;13.30;99.90
2579;DHT22;1299;48.282;14.398;2022-09-03T01:07:36;13.20;99.90
2579;DHT22;1299;48.282;14.398;2022-09-03T01:10:14;13.20;99.90
2579;DHT22;1299;48.282;14.398;2022-09-03T01:12:50;13.20;99.90
2579;DHT22;1299;48.282;14.398;2022-09-03T01:15:28;13.20;99.90
2579;DHT22;1299;48.282;14.398;2022-09-03T01:18:14;13.20;99.90
2579;DHT22;1299;48.282;14.398;2022-09-03T01:20:55;13.10;99.90
2579;DHT22;1299;48.282;14.398;2022-09-03T01:23:55;13.10;99.90
2579;DHT22;1299;48.282;14.398;2022-09-03T01:26:47;13.00;99.90
2579;DHT22;1299;48.282;14.398;2022-09-03T01:29:24;13.10;99.90
2579;DHT22;1299;48.282;14.398;2022-09-03T01:32:02;13.10;99.90
2579;DHT22;1299;48.282;14.398;2022-09-03T01:34:44;13.10;99.90
2579;DHT22;1299;48.282;14.398;2022-09-03T01:37:25;13.10;99.90
2579;DHT22;1299;48.282;14.398;2022-09-03T01:40:02;13.10;99.90
2579;DHT22;1299;48.282;14.398;2022-09-03T01:42:42;13.10;99.90
2579;DHT22;1299;48.282;14.398;2022-09-03T01:45:25;13.00;99.90
2579;DHT22;1299;48.282;14.398;2022-09-03T01:48:04;13.00;99.90
2579;DHT22;1299;48.282;14.398;2022-09-03T01:50:41;12.80;99.90
2579;DHT22;1299;48.282;14.398;2022-09-03T01:53:24;12.90;99.90
2579;DHT22;1299;48.282;14.398;2022-09-03T01:56:07;12.90;99.90
2579;DHT22;1299;48.282;14.398;2022-09-03T01:58:43;12.80;99.90
2579;DHT22;1299;48.282;14.398;2022-09-03T02:01:18;12.70;99.90
2579;DHT22;1299;48.282;14.398;2022-09-03T02:03:48;12.70;99.90
2579;DHT22;1299;48.282;14.398;2022-09-03T02:06:17;12.60;99.90
2579;DHT22;1299;48.282;14.398;2022-09-03T02:08:46;12.50;99.90
2579;DHT22;1299;48.282;14.398;2022-09-03T02:11:13;12.60;99.90
2579;DHT22;1299;48.282;14.398;2022-09-03T02:13:42;12.50;99.90
2579;DHT22;1299;48.282;14.398;2022-09-03T02:16:14;12.50;99.90
2579;DHT22;1299;48.282;14.398;2022-09-03T02:18:47;12.40;99.90
2579;DHT22;1299;48.282;14.398;2022-09-03T02:21:17;12.40;99.90
2579;DHT22;1299;48.282;14.398;2022-09-03T02:23:46;12.20;99.90
2579;DHT22;1299;48.282;14.398;2022-09-03T02:26:19;12.30;99.90
2579;DHT22;1299;48.282;14.398;2022-09-03T02:28:48;12.30;99.90
2579;DHT22;1299;48.282;14.398;2022-09-03T02:31:17;12.20;99.90
2579;DHT22;1299;48.282;14.398;2022-09-03T02:33:47;12.20;99.90
2579;DHT22;1299;48.282;14.398;2022-09-03T02:36:17;12.30;99.90
2579;DHT22;1299;48.282;14.398;2022-09-03T02:38:46;12.20;99.90
2579;DHT22;1299;48.282;14.398;2022-09-03T02:41:13;12.10;99.90
2579;DHT22;1299;48.282;14.398;2022-09-03T02:43:44;12.20;99.90
2579;DHT22;1299;48.282;14.398;2022-09-03T02:46:20;12.20;99.90
2579;DHT22;1299;48.282;14.398;2022-09-03T02:48:49;12.10;99.90
2579;DHT22;1299;48.282;14.398;2022-09-03T02:51:16;12.00;99.90
2579;DHT22;1299;48.282;14.398;2022-09-03T02:53:43;12.00;99.90
2579;DHT22;1299;48.282;14.398;2022-09-03T02:56:12;12.00;99.90
2579;DHT22;1299;48.282;14.398;2022-09-03T02:58:39;12.00;99.90
2579;DHT22;1299;48.282;14.398;2022-09-03T03:01:06;12.00;99.90
2579;DHT22;1299;48.282;14.398;2022-09-03T03:03:35;11.90;99.90
2579;DHT22;1299;48.282;14.398;2022-09-03T03:06:04;11.90;99.90
2579;DHT22;1299;48.282;14.398;2022-09-03T03:08:31;11.90;99.90
2579;DHT22;1299;48.282;14.398;2022-09-03T03:11:00;11.90;99.90
2579;DHT22;1299;48.282;14.398;2022-09-03T03:13:28;11.90;99.90
2579;DHT22;1299;48.282;14.398;2022-09-03T03:15:57;11.80;99.90
2579;DHT22;1299;48.282;14.398;2022-09-03T03:18:25;11.80;99.90
2579;DHT22;1299;48.282;14.398;2022-09-03T03:20:54;11.70;99.90
2579;DHT22;1299;48.282;14.398;2022-09-03T03:23:21;11.70;99.90
2579;DHT22;1299;48.282;14.398;2022-09-03T03:25:48;11.70;99.90
2579;DHT22;1299;48.282;14.398;2022-09-03T03:28:16;11.70;99.90
2579;DHT22;1299;48.282;14.398;2022-09-03T03:30:44;11.50;99.90
2579;DHT22;1299;48.282;14.398;2022-09-03T03:33:13;11.70;99.90
2579;DHT22;1299;48.282;14.398;2022-09-03T03:35:40;11.80;99.90
2579;DHT22;1299;48.282;14.398;2022-09-03T03:38:08;11.70;99.90
2579;DHT22;1299;48.282;14.398;2022-09-03T03:40:37;11.70;99.90
2579;DHT22;1299;48.282;14.398;2022-09-03T03:43:04;11.80;99.90
2579;DHT22;1299;48.282;14.398;2022-09-03T03:45:31;11.70;99.90
2579;DHT22;1299;48.282;14.398;2022-09-03T03:47:58;11.70;99.90
2579;DHT22;1299;48.282;14.398;2022-09-03T03:50:26;11.70;99.90
2579;DHT22;1299;48.282;14.398;2022-09-03T03:52:53;11.80;99.90
2579;DHT22;1299;48.282;14.398;2022-09-03T03:55:22;11.80;99.90
2579;DHT22;1299;48.282;14.398;2022-09-03T03:57:49;11.90;99.90
2579;DHT22;1299;48.282;14.398;2022-09-03T04:00:16;11.80;99.90
2579;DHT22;1299;48.282;14.398;2022-09-03T04:02:44;11.80;99.90
2579;DHT22;1299;48.282;14.398;2022-09-03T04:05:12;11.70;99.90
2579;DHT22;1299;48.282;14.398;2022-09-03T04:07:39;11.70;99.90
2579;DHT22;1299;48.282;14.398;2022-09-03T04:10:07;11.70;99.90
2579;DHT22;1299;48.282;14.398;2022-09-03T04:12:36;11.60;99.90
2579;DHT22;1299;48.282;14.398;2022-09-03T04:15:04;11.60;99.90
2579;DHT22;1299;48.282;14.398;2022-09-03T04:17:31;11.60;99.90
2579;DHT22;1299;48.282;14.398;2022-09-03T04:19:58;11.60;99.90
2579;DHT22;1299;48.282;14.398;2022-09-03T04:22:27;11.50;99.90
2579;DHT22;1299;48.282;14.398;2022-09-03T04:24:55;11.50;99.90
2579;DHT22;1299;48.282;14.398;2022-09-03T04:27:22;11.60;99.90
2579;DHT22;1299;48.282;14.398;2022-09-03T04:29:51;11.60;99.90
2579;DHT22;1299;48.282;14.398;2022-09-03T04:32:18;11.50;99.90
2579;DHT22;1299;48.282;14.398;2022-09-03T04:35:06;11.40;99.90
2579;DHT22;1299;48.282;14.398;2022-09-03T04:37:33;11.40;99.90
2579;DHT22;1299;48.282;14.398;2022-09-03T04:40:00;11.40;99.90
2579;DHT22;1299;48.282;14.398;2022-09-03T04:42:27;11.40;99.90
2579;DHT22;1299;48.282;14.398;2022-09-03T04:44:56;11.50;99.90
2579;DHT22;1299;48.282;14.398;2022-09-03T04:47:23;11.50;99.90
2579;DHT22;1299;48.282;14.398;2022-09-03T04:49:50;11.50;99.90
2579;DHT22;1299;48.282;14.398;2022-09-03T04:52:19;11.40;99.90
2579;DHT22;1299;48.282;14.398;2022-09-03T04:54:46;11.40;99.90
2579;DHT22;1299;48.282;14.398;2022-09-03T04:57:13;11.50;99.90
2579;DHT22;1299;48.282;14.398;2022-09-03T04:59:40;11.50;99.90
2579;DHT22;1299;48.282;14.398;2022-09-03T05:02:09;11.50;99.90
2579;DHT22;1299;48.282;14.398;2022-09-03T05:04:36;11.50;99.90
2579;DHT22;1299;48.282;14.398;2022-09-03T05:07:03;11.60;99.90
2579;DHT22;1299;48.282;14.398;2022-09-03T05:09:31;11.60;99.90
2579;DHT22;1299;48.282;14.398;2022-09-03T05:11:58;11.60;99.90
2579;DHT22;1299;48.282;14.398;2022-09-03T05:14:25;11.60;99.90
2579;DHT22;1299;48.282;14.398;2022-09-03T05:16:52;11.60;99.90
2579;DHT22;1299;48.282;14.398;2022-09-03T05:19:21;11.60;99.90
2579;DHT22;1299;48.282;14.398;2022-09-03T05:21:48;11.70;99.90
2579;DHT22;1299;48.282;14.398;2022-09-03T05:24:15;11.70;99.90
2579;DHT22;1299;48.282;14.398;2022-09-03T05:26:43;11.80;99.90
2579;DHT22;1299;48.282;14.398;2022-09-03T05:29:10;12.10;99.90
2579;DHT22;1299;48.282;14.398;2022-09-03T05:31:38;13.50;99.90
2579;DHT22;1299;48.282;14.398;2022-09-03T05:34:06;15.00;99.90
2579;DHT22;1299;48.282;14.398;2022-09-03T05:36:37;16.40;99.90
2579;DHT22;1299;48.282;14.398;2022-09-03T05:39:05;17.90;99.90
2579;DHT22;1299;48.282;14.398;2022-09-03T05:41:32;19.20;99.90
2579;DHT22;1299;48.282;14.398;2022-09-03T05:44:00;20.80;99.90
2579;DHT22;1299;48.282;14.398;2022-09-03T05:46:30;22.00;99.90
2579;DHT22;1299;48.282;14.398;2022-09-03T05:48:58;22.90;99.90
2579;DHT22;1299;48.282;14.398;2022-09-03T05:51:27;24.00;99.60
2579;DHT22;1299;48.282;14.398;2022-09-03T05:53:57;24.60;98.20
2579;DHT22;1299;48.282;14.398;2022-09-03T05:56:25;25.60;97.40
2579;DHT22;1299;48.282;14.398;2022-09-03T05:58:55;26.70;94.50
2579;DHT22;1299;48.282;14.398;2022-09-03T06:01:26;27.70;93.20
2579;DHT22;1299;48.282;14.398;2022-09-03T06:03:56;28.30;91.00
2579;DHT22;1299;48.282;14.398;2022-09-03T06:06:24;28.80;90.40
2579;DHT22;1299;48.282;14.398;2022-09-03T06:08:53;29.50;87.40
2579;DHT22;1299;48.282;14.398;2022-09-03T06:11:22;29.60;84.60
2579;DHT22;1299;48.282;14.398;2022-09-03T06:13:52;29.20;86.10
2579;DHT22;1299;48.282;14.398;2022-09-03T06:16:20;29.00;83.70
2579;DHT22;1299;48.282;14.398;2022-09-03T06:18:47;27.00;87.30
2579;DHT22;1299;48.282;14.398;2022-09-03T06:21:15;26.90;88.70
2579;DHT22;1299;48.282;14.398;2022-09-03T06:23:42;27.40;89.30
2579;DHT22;1299;48.282;14.398;2022-09-03T06:26:10;28.20;87.10
2579;DHT22;1299;48.282;14.398;2022-09-03T06:28:41;29.10;85.60
2579;DHT22;1299;48.282;14.398;2022-09-03T06:31:11;29.50;82.30
2579;DHT22;1299;48.282;14.398;2022-09-03T06:33:39;29.70;82.30
2579;DHT22;1299;48.282;14.398;2022-09-03T06:36:09;30.20;81.90
2579;DHT22;1299;48.282;14.398;2022-09-03T06:38:37;29.90;81.10
2579;DHT22;1299;48.282;14.398;2022-09-03T06:41:05;29.10;79.50
2579;DHT22;1299;48.282;14.398;2022-09-03T06:43:34;28.40;78.80
2579;DHT22;1299;48.282;14.398;2022-09-03T06:46:05;28.20;81.70
2579;DHT22;1299;48.282;14.398;2022-09-03T06:48:34;27.30;82.30
2579;DHT22;1299;48.282;14.398;2022-09-03T06:51:03;26.20;84.10
2579;DHT22;1299;48.282;14.398;2022-09-03T06:53:33;24.70;86.40
2579;DHT22;1299;48.282;14.398;2022-09-03T06:56:03;23.60;87.70
2579;DHT22;1299;48.282;14.398;2022-09-03T06:58:32;22.70;90.40
2579;DHT22;1299;48.282;14.398;2022-09-03T07:01:03;22.20;91.30
2579;DHT22;1299;48.282;14.398;2022-09-03T07:03:32;21.90;91.70
2579;DHT22;1299;48.282;14.398;2022-09-03T07:06:00;21.50;93.00
2579;DHT22;1299;48.282;14.398;2022-09-03T07:08:27;21.40;93.10
2579;DHT22;1299;48.282;14.398;2022-09-03T07:10:57;21.20;92.80
2579;DHT22;1299;48.282;14.398;2022-09-03T07:13:26;21.20;92.70
2579;DHT22;1299;48.282;14.398;2022-09-03T07:16:00;20.40;92.80
2579;DHT22;1299;48.282;14.398;2022-09-03T07:18:29;20.40;93.00
2579;DHT22;1299;48.282;14.398;2022-09-03T07:20:59;20.60;93.70
2579;DHT22;1299;48.282;14.398;2022-09-03T07:23:28;20.70;93.30
2579;DHT22;1299;48.282;14.398;2022-09-03T07:25:58;20.10;94.20
2579;DHT22;1299;48.282;14.398;2022-09-03T07:28:27;19.90;95.80
2579;DHT22;1299;48.282;14.398;2022-09-03T07:31:02;19.60;97.20
2579;DHT22;1299;48.282;14.398;2022-09-03T07:33:31;19.80;97.80
2579;DHT22;1299;48.282;14.398;2022-09-03T07:36:02;19.90;97.90
2579;DHT22;1299;48.282;14.398;2022-09-03T07:38:31;20.10;98.50
2579;DHT22;1299;48.282;14.398;2022-09-03T07:40:58;20.10;98.90
2579;DHT22;1299;48.282;14.398;2022-09-03T07:43:26;20.20;99.30
2579;DHT22;1299;48.282;14.398;2022-09-03T07:45:54;20.10;99.70
2579;DHT22;1299;48.282;14.398;2022-09-03T07:48:23;19.90;99.90
2579;DHT22;1299;48.282;14.398;2022-09-03T07:50:51;20.60;99.90
2579;DHT22;1299;48.282;14.398;2022-09-03T07:53:19;21.10;99.90
2579;DHT22;1299;48.282;14.398;2022-09-03T07:55:47;20.60;99.80
2579;DHT22;1299;48.282;14.398;2022-09-03T07:58:14;20.80;99.90
2579;DHT22;1299;48.282;14.398;2022-09-03T08:00:42;21.10;99.90
2579;DHT22;1299;48.282;14.398;2022-09-03T08:03:10;21.40;99.70
2579;DHT22;1299;48.282;14.398;2022-09-03T08:05:37;21.30;98.80
2579;DHT22;1299;48.282;14.398;2022-09-03T08:08:06;21.40;98.60
2579;DHT22;1299;48.282;14.398;2022-09-03T08:10:34;21.60;99.00
2579;DHT22;1299;48.282;14.398;2022-09-03T08:13:03;21.50;98.10
2579;DHT22;1299;48.282;14.398;2022-09-03T08:15:31;21.80;98.50
2579;DHT22;1299;48.282;14.398;2022-09-03T08:17:59;21.70;97.60
2579;DHT22;1299;48.282;14.398;2022-09-03T08:20:27;21.80;98.40
2579;DHT22;1299;48.282;14.398;2022-09-03T08:23:00;22.00;98.60
2579;DHT22;1299;48.282;14.398;2022-09-03T08:25:30;22.00;98.00
2579;DHT22;1299;48.282;14.398;2022-09-03T08:27:58;21.60;98.10
2579;DHT22;1299;48.282;14.398;2022-09-03T08:30:27;21.60;98.20
2579;DHT22;1299;48.282;14.398;2022-09-03T08:32:54;20.50;99.30
2579;DHT22;1299;48.282;14.398;2022-09-03T08:35:22;21.40;99.80
2579;DHT22;1299;48.282;14.398;2022-09-03T08:37:49;21.70;99.50
2579;DHT22;1299;48.282;14.398;2022-09-03T08:40:19;21.70;98.60
2579;DHT22;1299;48.282;14.398;2022-09-03T08:43:05;21.60;98.90
2579;DHT22;1299;48.282;14.398;2022-09-03T08:45:35;21.60;98.90
2579;DHT22;1299;48.282;14.398;2022-09-03T08:48:08;21.40;98.80
2579;DHT22;1299;48.282;14.398;2022-09-03T08:50:39;21.50;99.70
2579;DHT22;1299;48.282;14.398;2022-09-03T08:53:12;21.70;99.30
2579;DHT22;1299;48.282;14.398;2022-09-03T08:55:46;21.90;99.90
2579;DHT22;1299;48.282;14.398;2022-09-03T08:58:18;22.20;99.90
2579;DHT22;1299;48.282;14.398;2022-09-03T09:00:50;22.50;99.60
2579;DHT22;1299;48.282;14.398;2022-09-03T09:03:40;22.70;98.70
2579;DHT22;1299;48.282;14.398;2022-09-03T09:06:16;23.00;98.60
2579;DHT22;1299;48.282;14.398;2022-09-03T09:08:54;23.10;98.30
2579;DHT22;1299;48.282;14.398;2022-09-03T09:11:30;23.00;97.60
2579;DHT22;1299;48.282;14.398;2022-09-03T09:14:09;23.20;98.20
2579;DHT22;1299;48.282;14.398;2022-09-03T09:16:41;23.00;98.10
2579;DHT22;1299;48.282;14.398;2022-09-03T09:19:22;23.40;97.20
2579;DHT22;1299;48.282;14.398;2022-09-03T09:21:54;23.60;97.40
2579;DHT22;1299;48.282;14.398;2022-09-03T09:24:25;23.90;97.80
2579;DHT22;1299;48.282;14.398;2022-09-03T09:26:57;23.80;97.90
2579;DHT22;1299;48.282;14.398;2022-09-03T09:29:27;23.90;97.30
2579;DHT22;1299;48.282;14.398;2022-09-03T09:31:56;24.10;95.90
2579;DHT22;1299;48.282;14.398;2022-09-03T09:34:23;23.70;95.90
2579;DHT22;1299;48.282;14.398;2022-09-03T09:36:53;23.10;96.40
2579;DHT22;1299;48.282;14.398;2022-09-03T09:39:21;23.10;96.80
2579;DHT22;1299;48.282;14.398;2022-09-03T09:41:58;23.00;97.20
2579;DHT22;1299;48.282;14.398;2022-09-03T09:44:28;23.00;97.30
2579;DHT22;1299;48.282;14.398;2022-09-03T09:47:03;22.90;96.70
2579;DHT22;1299;48.282;14.398;2022-09-03T09:49:33;22.80;98.10
2579;DHT22;1299;48.282;14.398;2022-09-03T09:52:09;23.00;98.40
2579;DHT22;1299;48.282;14.398;2022-09-03T09:54:38;22.70;97.70
2579;DHT22;1299;48.282;14.398;2022-09-03T09:57:07;22.10;97.90
2579;DHT22;1299;48.282;14.398;2022-09-03T09:59:36;22.00;98.60
2579;DHT22;1299;48.282;14.398;2022-09-03T10:02:11;22.20;99.80
2579;DHT22;1299;48.282;14.398;2022-09-03T10:04:40;22.40;99.50
2579;DHT22;1299;48.282;14.398;2022-09-03T10:07:24;22.70;99.10
2579;DHT22;1299;48.282;14.398;2022-09-03T10:10:00;22.70;98.60
2579;DHT22;1299;48.282;14.398;2022-09-03T10:12:34;22.50;98.80
2579;DHT22;1299;48.282;14.398;2022-09-03T10:15:21;22.40;98.40
2579;DHT22;1299;48.282;14.398;2022-09-03T10:17:56;22.50;99.50
2579;DHT22;1299;48.282;14.398;2022-09-03T10:20:32;23.00;99.10
2579;DHT22;1299;48.282;14.398;2022-09-03T10:23:14;23.20;99.10
2579;DHT22;1299;48.282;14.398;2022-09-03T10:25:56;22.80;98.10
2579;DHT22;1299;48.282;14.398;2022-09-03T10:28:29;22.60;98.50
2579;DHT22;1299;48.282;14.398;2022-09-03T10:31:28;22.70;99.60
2579;DHT22;1299;48.282;14.398;2022-09-03T10:34:01;22.60;98.80
2579;DHT22;1299;48.282;14.398;2022-09-03T10:36:35;22.70;99.80
2579;DHT22;1299;48.282;14.398;2022-09-03T10:39:05;22.80;98.90
2579;DHT22;1299;48.282;14.398;2022-09-03T10:41:47;22.60;98.00
2579;DHT22;1299;48.282;14.398;2022-09-03T10:44:34;22.90;99.30
2579;DHT22;1299;48.282;14.398;2022-09-03T10:47:23;23.40;98.40
2579;DHT22;1299;48.282;14.398;2022-09-03T10:50:00;23.60;98.50
2579;DHT22;1299;48.282;14.398;2022-09-03T10:52:34;24.10;98.90
2579;DHT22;1299;48.282;14.398;2022-09-03T10:55:19;24.20;97.40
2579;DHT22;1299;48.282;14.398;2022-09-03T10:57:53;24.20;97.80
2579;DHT22;1299;48.282;14.398;2022-09-03T11:00:25;24.50;98.70
2579;DHT22;1299;48.282;14.398;2022-09-03T11:03:18;24.80;98.10
2579;DHT22;1299;48.282;14.398;2022-09-03T11:05:58;24.60;96.70
2579;DHT22;1299;48.282;14.398;2022-09-03T11:08:29;24.70;97.80
2579;DHT22;1299;48.282;14.398;2022-09-03T11:11:08;24.70;97.20
2579;DHT22;1299;48.282;14.398;2022-09-03T11:13:39;24.60;96.70
2579;DHT22;1299;48.282;14.398;2022-09-03T11:16:12;24.30;96.40
2579;DHT22;1299;48.282;14.398;2022-09-03T11:18:45;24.10;97.20
2579;DHT22;1299;48.282;14.398;2022-09-03T11:21:17;24.40;96.90
2579;DHT22;1299;48.282;14.398;2022-09-03T11:23:50;24.40;96.50
2579;DHT22;1299;48.282;14.398;2022-09-03T11:26:20;24.40;96.40
2579;DHT22;1299;48.282;14.398;2022-09-03T11:28:56;24.60;96.60
2579;DHT22;1299;48.282;14.398;2022-09-03T11:31:32;24.50;95.50
2579;DHT22;1299;48.282;14.398;2022-09-03T11:34:07;24.90;96.10
2579;DHT22;1299;48.282;14.398;2022-09-03T11:36:36;24.30;96.20
2579;DHT22;1299;48.282;14.398;2022-09-03T11:39:18;24.60;95.30
2579;DHT22;1299;48.282;14.398;2022-09-03T11:41:56;24.80;96.50
2579;DHT22;1299;48.282;14.398;2022-09-03T11:44:34;25.00;95.60
2579;DHT22;1299;48.282;14.398;2022-09-03T11:47:13;24.90;95.10
2579;DHT22;1299;48.282;14.398;2022-09-03T11:49:46;24.40;95.30
2579;DHT22;1299;48.282;14.398;2022-09-03T11:52:25;24.90;95.90
2579;DHT22;1299;48.282;14.398;2022-09-03T11:54:53;25.00;95.70
2579;DHT22;1299;48.282;14.398;2022-09-03T11:57:26;25.00;95.20
2579;DHT22;1299;48.282;14.398;2022-09-03T12:00:07;25.10;95.00
2579;DHT22;1299;48.282;14.398;2022-09-03T12:02:36;24.30;94.20
2579;DHT22;1299;48.282;14.398;2022-09-03T12:05:16;24.90;94.50
2579;DHT22;1299;48.282;14.398;2022-09-03T12:08:07;25.10;93.60
2579;DHT22;1299;48.282;14.398;2022-09-03T12:10:43;25.40;94.40
2579;DHT22;1299;48.282;14.398;2022-09-03T12:13:28;25.80;94.10
2579;DHT22;1299;48.282;14.398;2022-09-03T12:16:21;26.10;93.50
2579;DHT22;1299;48.282;14.398;2022-09-03T12:18:50;25.50;93.40
2579;DHT22;1299;48.282;14.398;2022-09-03T12:21:21;25.50;92.70
2579;DHT22;1299;48.282;14.398;2022-09-03T12:23:50;25.70;92.80
2579;DHT22;1299;48.282;14.398;2022-09-03T12:26:20;25.80;93.10
2579;DHT22;1299;48.282;14.398;2022-09-03T12:28:49;26.00;92.60
2579;DHT22;1299;48.282;14.398;2022-09-03T12:31:20;26.20;93.30
2579;DHT22;1299;48.282;14.398;2022-09-03T12:33:50;26.40;92.60
2579;DHT22;1299;48.282;14.398;2022-09-03T12:36:21;26.50;92.60
2579;DHT22;1299;48.282;14.398;2022-09-03T12:38:48;26.00;93.50
2579;DHT22;1299;48.282;14.398;2022-09-03T12:41:24;26.10;93.90
2579;DHT22;1299;48.282;14.398;2022-09-03T12:43:53;26.30;93.40
2579;DHT22;1299;48.282;14.398;2022-09-03T12:46:26;26.70;93.70
2579;DHT22;1299;48.282;14.398;2022-09-03T12:48:55;26.50;92.70
2579;DHT22;1299;48.282;14.398;2022-09-03T12:51:25;25.10;93.00
2579;DHT22;1299;48.282;14.398;2022-09-03T12:53:52;25.20;93.60
2579;DHT22;1299;48.282;14.398;2022-09-03T12:56:21;25.30;94.40
2579;DHT22;1299;48.282;14.398;2022-09-03T12:58:52;25.10;94.00
2579;DHT22;1299;48.282;14.398;2022-09-03T13:01:26;25.40;94.30
2579;DHT22;1299;48.282;14.398;2022-09-03T13:04:01;25.60;93.70
2579;DHT22;1299;48.282;14.398;2022-09-03T13:06:39;25.40;93.30
2579;DHT22;1299;48.282;14.398;2022-09-03T13:09:09;25.70;93.90
2579;DHT22;1299;48.282;14.398;2022-09-03T13:11:36;25.70;93.10
2579;DHT22;1299;48.282;14.398;2022-09-03T13:14:06;25.90;92.70
2579;DHT22;1299;48.282;14.398;2022-09-03T13:17:03;26.30;93.60
2579;DHT22;1299;48.282;14.398;2022-09-03T13:19:45;26.60;92.90
2579;DHT22;1299;48.282;14.398;2022-09-03T13:22:23;26.30;93.10
2579;DHT22;1299;48.282;14.398;2022-09-03T13:25:15;26.40;92.10
2579;DHT22;1299;48.282;14.398;2022-09-03T13:27:57;26.30;92.50
2579;DHT22;1299;48.282;14.398;2022-09-03T13:30:31;26.60;92.30
2579;DHT22;1299;48.282;14.398;2022-09-03T13:33:05;27.00;92.50
2579;DHT22;1299;48.282;14.398;2022-09-03T13:35:39;27.00;92.70
2579;DHT22;1299;48.282;14.398;2022-09-03T13:38:21;27.00;92.30
2579;DHT22;1299;48.282;14.398;2022-09-03T13:40:54;27.40;92.40
2579;DHT22;1299;48.282;14.398;2022-09-03T13:43:32;27.60;92.00
2579;DHT22;1299;48.282;14.398;2022-09-03T13:46:06;27.50;91.40
2579;DHT22;1299;48.282;14.398;2022-09-03T13:48:37;26.70;91.40
2579;DHT22;1299;48.282;14.398;2022-09-03T13:51:26;25.70;92.20
2579;DHT22;1299;48.282;14.398;2022-09-03T13:54:06;26.60;93.20
2579;DHT22;1299;48.282;14.398;2022-09-03T13:56:48;27.00;92.80
2579;DHT22;1299;48.282;14.398;2022-09-03T13:59:22;26.90;93.10
2579;DHT22;1299;48.282;14.398;2022-09-03T14:02:11;26.50;91.60
2579;DHT22;1299;48.282;14.398;2022-09-03T14:05:00;26.60;92.10
2579;DHT22;1299;48.282;14.398;2022-09-03T14:07:43;26.70;92.20
2579;DHT22;1299;48.282;14.398;2022-09-03T14:10:22;26.50;91.10
2579;DHT22;1299;48.282;14.398;2022-09-03T14:13:01;26.60;91.70
2579;DHT22;1299;48.282;14.398;2022-09-03T14:15:34;26.80;91.10
2579;DHT22;1299;48.282;14.398;2022-09-03T14:18:12;27.00;91.20
2579;DHT22;1299;48.282;14.398;2022-09-03T14:20:44;27.00;92.10
2579;DHT22;1299;48.282;14.398;2022-09-03T14:23:28;26.00;91.60
2579;DHT22;1299;48.282;14.398;2022-09-03T14:26:04;25.60;91.40
2579;DHT22;1299;48.282;14.398;2022-09-03T14:28:35;25.30;91.30
2579;DHT22;1299;48.282;14.398;2022-09-03T14:31:12;25.40;91.70
2579;DHT22;1299;48.282;14.398;2022-09-03T14:33:48;25.80;92.40
2579;DHT22;1299;48.282;14.398;2022-09-03T14:36:25;25.90;92.00
2579;DHT22;1299;48.282;14.398;2022-09-03T14:42:26;26.00;92.80
2579;DHT22;1299;48.282;14.398;2022-09-03T14:45:13;26.30;93.50
2579;DHT22;1299;48.282;14.398;2022-09-03T14:48:09;26.30;92.80
2579;DHT22;1299;48.282;14.398;2022-09-03T14:50:48;25.80;92.60
2579;DHT22;1299;48.282;14.398;2022-09-03T14:56:38;25.90;93.70
2579;DHT22;1299;48.282;14.398;2022-09-03T14:59:38;26.00;93.50
2579;DHT22;1299;48.282;14.398;2022-09-03T15:02:36;26.30;93.90
2579;DHT22;1299;48.282;14.398;2022-09-03T15:05:09;26.10;92.40
2579;DHT22;1299;48.282;14.398;2022-09-03T15:07:42;26.20;93.60
2579;DHT22;1299;48.282;14.398;2022-09-03T15:10:18;26.40;93.90
2579;DHT22;1299;48.282;14.398;2022-09-03T15:12:50;26.40;93.10
2579;DHT22;1299;48.282;14.398;2022-09-03T15:15:23;26.50;92.80
2579;DHT22;1299;48.282;14.398;2022-09-03T15:18:01;26.60;92.20
2579;DHT22;1299;48.282;14.398;2022-09-03T15:20:32;26.70;92.20
2579;DHT22;1299;48.282;14.398;2022-09-03T15:23:15;26.70;92.60
2579;DHT22;1299;48.282;14.398;2022-09-03T15:28:55;26.70;92.60
2579;DHT22;1299;48.282;14.398;2022-09-03T15:31:36;26.60;92.40
2579;DHT22;1299;48.282;14.398;2022-09-03T15:34:32;26.70;92.60
2579;DHT22;1299;48.282;14.398;2022-09-03T15:37:12;26.50;93.40
2579;DHT22;1299;48.282;14.398;2022-09-03T15:39:43;26.40;95.00
2579;DHT22;1299;48.282;14.398;2022-09-03T15:42:16;26.50;95.10
2579;DHT22;1299;48.282;14.398;2022-09-03T15:44:46;26.40;95.50
2579;DHT22;1299;48.282;14.398;2022-09-03T15:47:35;26.40;96.70
2579;DHT22;1299;48.282;14.398;2022-09-03T15:50:09;26.30;99.10
2579;DHT22;1299;48.282;14.398;2022-09-03T15:52:48;26.30;99.90
2579;DHT22;1299;48.282;14.398;2022-09-03T15:55:26;26.10;99.90
2579;DHT22;1299;48.282;14.398;2022-09-03T15:57:59;25.90;99.90
2579;DHT22;1299;48.282;14.398;2022-09-03T16:00:52;26.10;99.90
2579;DHT22;1299;48.282;14.398;2022-09-03T16:03:35;26.00;99.90
2579;DHT22;1299;48.282;14.398;2022-09-03T16:06:19;25.90;99.90
2579;DHT22;1299;48.282;14.398;2022-09-03T16:08:53;25.80;99.90
2579;DHT22;1299;48.282;14.398;2022-09-03T16:11:31;25.70;99.90
2579;DHT22;1299;48.282;14.398;2022-09-03T16:14:05;25.60;99.90
2579;DHT22;1299;48.282;14.398;2022-09-03T16:16:49;25.60;99.90
2579;DHT22;1299;48.282;14.398;2022-09-03T16:19:23;25.50;99.90
2579;DHT22;1299;48.282;14.398;2022-09-03T16:21:57;25.50;99.90
2579;DHT22;1299;48.282;14.398;2022-09-03T16:24:31;25.30;99.90
2579;DHT22;1299;48.282;14.398;2022-09-03T16:27:03;25.30;99.90
2579;DHT22;1299;48.282;14.398;2022-09-03T16:29:32;25.20;99.90
2579;DHT22;1299;48.282;14.398;2022-09-03T16:32:08;25.10;99.90
2579;DHT22;1299;48.282;14.398;2022-09-03T16:34:50;24.90;99.90